• Join FlightAware (Why Join?)
  • Login
  • US Flag 
01:27PM EDT


 

Airport Tracker/Info


-or-


 

Live Flight TrackerFlight Track Log ✈ UCA3599 ✈ 12-Mar-2014 ✈ KBGM - KIAD

Flight Track Log - Related Links

Times and Time Zones

All times are in EDT time to prevent confusion due to time zone crossing. See the UCA3599 flight status page for this flight to view local times or setup timezone preferences in your user account.

Time Position Orientation Groundspeed Altitude Reporting Facility
EDT Latitude Longitude Course Direction KTS MPH feet Rate Location/Type
07:46AM 42.2269 -76.0858 202° Southwest 185 213 3,900  Level New York Center
07:47AM 42.1781 -76.1128 202° Southwest 167 192 5,300 1,260 Climbing New York Center
07:48AM 42.1328 -76.1428 206° Southwest 172 198 6,500 1,200 Climbing New York Center
07:49AM 42.0917 -76.1783 213° Southwest 179 206 7,800 1,320 Climbing New York Center
07:50AM 42.0419 -76.2192 211° Southwest 179 206 9,200 1,380 Climbing New York Center
07:51AM 42.0053 -76.2494 212° Southwest 186 214 10,600 1,320 Climbing New York Center
07:52AM 41.9642 -76.2797 209° Southwest 186 214 11,900 1,260 Climbing New York Center
07:53AM 41.9189 -76.3178 212° Southwest 179 206 13,200 1,140 Climbing New York Center
07:54AM 41.8756 -76.3531 211° Southwest 184 212 14,200 1,020 Climbing New York Center
07:55AM 41.8367 -76.3806 208° Southwest 184 212 15,300 900 Climbing New York Center
07:56AM 41.7956 -76.4158 213° Southwest 184 212 16,000 300 Climbing New York Center
07:57AM 41.7456 -76.4561 211° Southwest 195 224 16,000  Level New York Center
07:58AM 41.6853 -76.5011 209° Southwest 224 258 16,000  Level New York Center
07:59AM 41.6311 -76.5436 210° Southwest 229 264 16,100  Climbing New York Center
08:00AM 41.5833 -76.5811 210° Southwest 229 264 16,100 -60 Level New York Center
08:01AM 41.5314 -76.6236 211° Southwest 229 264 16,000 -60 Descending New York Center
08:02AM 41.4750 -76.6686 211° Southwest 223 257 16,000  Level New York Center
08:03AM 41.4208 -76.7108 210° Southwest 223 257 16,000  Level New York Center
08:04AM 41.3686 -76.7533 211° Southwest 223 257 16,100  Climbing New York Center
08:05AM 41.3108 -76.7842 202° Southwest 223 257 16,100  Level New York Center
08:06AM 41.2456 -76.7975 189° South 228 262 16,100  Level New York Center
08:07AM 41.1803 -76.8083 187° South 234 269 16,100  Level New York Center
08:08AM 41.1153 -76.8192 187° South 240 276 16,100 -60 Level New York Center
08:09AM 41.0478 -76.8322 188° South 240 276 16,000 -60 Descending New York Center
08:10AM 40.9825 -76.8486 191° South 240 276 16,000  Level New York Center
08:11AM 40.9194 -76.8594 187° South 235 270 16,100  Climbing New York Center
08:12AM 40.8519 -76.8725 188° South 240 276 16,100 -60 Level New York Center
08:13AM 40.7867 -76.8858 189° South 240 276 16,000 -60 Descending New York Center
08:14AM 40.7233 -76.9050 193° South 235 270 16,000  Level New York Center
08:15AM 40.6617 -76.9267 195° South 235 270 16,000  Level New York Center
08:16AM 40.5981 -76.9456 193° South 235 270 16,000  Level New York Center
08:17AM 40.5347 -76.9644 193° South 235 270 16,000  Level New York Center
08:18AM 40.4836 -76.9819 195° South 235 270 16,000  Level New York Center
08:19AM 40.4094 -77.0053 193° South 235 270 16,000  Level New York Center
08:20AM 40.3503 -77.0189 190° South 235 270 16,000  Level New York Center
08:21AM 40.2825 -77.0428 195° South 235 270 16,000  Level New York Center
08:22AM 40.2250 -77.0619 194° South 235 270 16,000 -600 Level New York Center
08:25AM 40.0667 -77.1167 195° South 240 276 14,000 -840 Descending Potomac TRACON
08:26AM 40.0000 -77.1333 191° South 236 272 13,300 -840 Descending Potomac TRACON
08:27AM 39.9333 -77.1500 191° South 236 272 12,400 -840 Descending Potomac TRACON
08:28AM 39.8833 -77.1667 194° South 233 268 11,700 -840 Descending Potomac TRACON
08:29AM 39.8167 -77.1833 191° South 222 255 10,900 -840 Descending Potomac TRACON
08:29AM 39.7667 -77.2000 194° South 218 251 10,200 -840 Descending Potomac TRACON
08:30AM 39.7000 -77.2167 191° South 215 247 9,400 -900 Descending Potomac TRACON
08:31AM 39.6667 -77.2667 229° Southwest 209 241 8,600 -840 Descending Potomac TRACON
08:32AM 39.6333 -77.3333 237° Southwest 205 236 7,800 -780 Descending Potomac TRACON
08:33AM 39.5833 -77.3667 207° Southwest 218 251 7,100 -420 Descending Potomac TRACON
08:34AM 39.5333 -77.4000 207° Southwest 216 249 7,000 -60 Descending Potomac TRACON
08:35AM 39.4833 -77.4333 207° Southwest 222 255 7,000 -360 Level Potomac TRACON
08:36AM 39.4167 -77.4500 191° South 224 258 6,400 -780 Descending Potomac TRACON
08:37AM 39.3667 -77.4500 180° South 225 259 5,600 -1,020 Descending Potomac TRACON
08:38AM 39.3000 -77.4500 180° South 231 266 4,400 -900 Descending Potomac TRACON
08:39AM 39.2333 -77.4500 180° South 227 261 4,000 -240 Descending Potomac TRACON
08:40AM 39.1833 -77.4500 180° South 186 214 4,000 -240 Level Potomac TRACON
08:41AM 39.1333 -77.4500 180° South 154 177 3,600 -660 Descending Potomac TRACON
08:42AM 39.1000 -77.4500 180° South 178 205 2,700 -960 Descending Potomac TRACON
08:43AM 39.0500 -77.4500 180° South 176 203 1,800 -900 Descending Potomac TRACON
08:44AM 39.0167 -77.4667 201° Southwest 140 161 1,100 -720 Descending Potomac TRACON